createdAt,value
2023-05-14T00:01:11.281Z,8.20
2023-05-14T00:03:47.494Z,8.30
2023-05-14T00:06:21.649Z,9.50
2023-05-14T00:08:56.717Z,8.80
2023-05-14T00:11:31.725Z,8.70
2023-05-14T00:14:06.815Z,8.20
2023-05-14T00:16:41.981Z,8.90
2023-05-14T00:19:21.818Z,8.40
2023-05-14T00:21:57.190Z,9.40
2023-05-14T00:24:31.051Z,8.60
2023-05-14T00:27:09.565Z,8.50
2023-05-14T00:29:46.106Z,8.70
2023-05-14T00:32:22.932Z,8.00
2023-05-14T00:34:59.778Z,8.20
2023-05-14T00:37:34.331Z,8.50
2023-05-14T00:40:13.202Z,9.10
2023-05-14T00:42:49.356Z,8.00
2023-05-14T00:45:28.744Z,8.70
2023-05-14T00:48:03.020Z,8.30
2023-05-14T00:50:37.680Z,9.10
2023-05-14T00:53:14.090Z,8.20
2023-05-14T00:55:52.357Z,8.60
2023-05-14T00:58:28.982Z,8.70
2023-05-14T01:01:06.000Z,8.10
2023-05-14T01:03:40.950Z,8.40
2023-05-14T01:06:26.417Z,8.30
2023-05-14T01:09:10.506Z,8.10
2023-05-14T01:12:00.436Z,9.00
2023-05-14T01:14:42.806Z,8.70
2023-05-14T01:17:22.951Z,8.30
2023-05-14T01:20:02.695Z,8.10
2023-05-14T01:22:40.940Z,7.90
2023-05-14T01:25:16.487Z,8.10
2023-05-14T01:27:57.158Z,8.20
2023-05-14T01:30:35.726Z,8.50
2023-05-14T01:33:14.340Z,8.00
2023-05-14T01:35:49.378Z,8.80
2023-05-14T01:38:25.943Z,8.40
2023-05-14T01:41:05.537Z,9.70
2023-05-14T01:43:40.567Z,8.60
2023-05-14T01:46:17.926Z,9.50
2023-05-14T01:48:52.763Z,9.90
2023-05-14T01:51:28.078Z,8.20
2023-05-14T01:54:03.424Z,9.20
2023-05-14T01:56:38.204Z,9.20
2023-05-14T01:59:12.366Z,8.40
2023-05-14T02:01:47.612Z,8.30
2023-05-14T02:04:21.840Z,9.00
2023-05-14T02:06:58.673Z,8.30
2023-05-14T02:09:32.971Z,8.30
2023-05-14T02:12:11.902Z,8.50
2023-05-14T02:14:47.904Z,8.70
2023-05-14T02:17:23.590Z,8.60
2023-05-14T02:19:57.619Z,8.20
2023-05-14T02:22:32.816Z,8.90
2023-05-14T02:25:08.561Z,8.90
2023-05-14T02:27:42.778Z,9.00
2023-05-14T02:30:24.665Z,8.60
2023-05-14T02:32:59.984Z,8.20
2023-05-14T02:35:36.687Z,9.70
2023-05-14T02:38:10.551Z,9.30
2023-05-14T02:40:49.372Z,8.40
2023-05-14T02:43:23.944Z,9.00
2023-05-14T02:45:57.671Z,8.60
2023-05-14T02:48:31.909Z,9.30
2023-05-14T02:51:07.938Z,9.20
2023-05-14T02:53:43.321Z,8.60
2023-05-14T02:56:18.318Z,8.60
2023-05-14T02:58:52.285Z,8.90
2023-05-14T03:01:27.465Z,9.50
2023-05-14T03:04:04.386Z,10.00
2023-05-14T03:06:39.695Z,9.30
2023-05-14T03:09:16.269Z,9.40
2023-05-14T03:11:51.595Z,9.30
2023-05-14T03:14:25.976Z,9.10
2023-05-14T03:17:01.604Z,9.50
2023-05-14T03:19:37.982Z,9.10
2023-05-14T03:22:12.299Z,10.30
2023-05-14T03:24:47.825Z,9.40
2023-05-14T03:27:22.226Z,9.10
2023-05-14T03:29:58.837Z,10.10
2023-05-14T03:32:35.849Z,9.10
2023-05-14T03:35:11.990Z,10.00
2023-05-14T03:37:45.792Z,9.90
2023-05-14T03:40:22.143Z,9.20
2023-05-14T03:42:58.369Z,9.20
2023-05-14T03:45:34.890Z,9.40
2023-05-14T03:48:16.007Z,9.90
2023-05-14T03:50:51.366Z,9.50
2023-05-14T03:53:26.523Z,9.30
2023-05-14T03:56:02.095Z,9.80
2023-05-14T03:58:36.052Z,9.90
2023-05-14T04:01:10.071Z,9.60
2023-05-14T04:03:46.328Z,9.70
2023-05-14T04:06:24.488Z,9.70
2023-05-14T04:08:58.196Z,9.70
2023-05-14T04:11:31.884Z,9.60
2023-05-14T04:14:05.608Z,9.70
2023-05-14T04:16:41.935Z,9.80
2023-05-14T04:19:17.149Z,10.20
2023-05-14T04:21:53.222Z,10.00
2023-05-14T04:24:28.717Z,9.50
2023-05-14T04:27:02.886Z,10.40
2023-05-14T04:29:37.049Z,10.00
2023-05-14T04:32:12.246Z,10.10
2023-05-14T04:34:47.976Z,9.60
2023-05-14T04:37:21.537Z,9.70
2023-05-14T04:39:55.302Z,10.50
2023-05-14T04:42:28.846Z,9.90
2023-05-14T04:45:05.417Z,10.20
2023-05-14T04:47:40.400Z,10.80
2023-05-14T04:50:18.677Z,10.20
2023-05-14T04:52:52.467Z,10.50
2023-05-14T04:55:26.431Z,10.40
2023-05-14T04:58:00.286Z,10.80
2023-05-14T05:00:34.306Z,10.70
2023-05-14T05:03:10.492Z,10.50
2023-05-14T05:05:44.323Z,10.80
2023-05-14T05:08:20.642Z,10.60
2023-05-14T05:10:55.728Z,10.80
2023-05-14T05:13:32.317Z,10.90
2023-05-14T05:16:07.922Z,11.10
2023-05-14T05:18:45.864Z,10.90
2023-05-14T05:21:23.249Z,10.60
2023-05-14T05:23:58.584Z,11.10
2023-05-14T05:26:32.495Z,11.40
2023-05-14T05:29:06.510Z,11.30
2023-05-14T05:31:42.905Z,10.90
2023-05-14T05:34:16.959Z,10.70
2023-05-14T05:36:53.505Z,10.60
2023-05-14T05:39:35.121Z,10.80
2023-05-14T05:42:11.770Z,10.90
2023-05-14T05:44:45.677Z,10.80
2023-05-14T05:47:20.575Z,11.20
2023-05-14T05:49:55.029Z,11.40
2023-05-14T05:52:28.940Z,11.00
2023-05-14T05:55:05.048Z,11.10
2023-05-14T05:57:39.027Z,11.20
2023-05-14T06:00:17.388Z,11.30
2023-05-14T06:02:52.425Z,11.10
2023-05-14T06:05:28.713Z,10.80
2023-05-14T06:08:05.504Z,10.90
2023-05-14T06:10:39.364Z,10.60
2023-05-14T06:13:12.979Z,11.00
2023-05-14T06:15:47.855Z,10.80
2023-05-14T06:18:22.996Z,10.50
2023-05-14T06:20:57.453Z,10.30
2023-05-14T06:23:30.953Z,11.00
2023-05-14T06:26:04.522Z,10.20
2023-05-14T06:28:38.021Z,10.60
2023-05-14T06:31:12.605Z,10.60
2023-05-14T06:33:48.348Z,10.20
2023-05-14T06:36:24.267Z,9.90
2023-05-14T06:38:58.401Z,9.80
2023-05-14T06:41:32.271Z,10.50
2023-05-14T06:44:06.598Z,9.90
2023-05-14T06:46:41.318Z,10.10
2023-05-14T06:49:15.265Z,9.90
2023-05-14T06:51:49.915Z,9.70
2023-05-14T06:54:23.315Z,9.30
2023-05-14T06:56:56.934Z,10.40
2023-05-14T06:59:30.234Z,9.50
2023-05-14T07:02:03.796Z,9.20
2023-05-14T07:04:37.496Z,9.40
2023-05-14T07:07:18.367Z,10.10
2023-05-14T07:09:54.815Z,9.50
2023-05-14T07:12:30.045Z,9.10
2023-05-14T07:15:07.516Z,9.90
2023-05-14T07:17:42.495Z,9.70
2023-05-14T07:20:17.284Z,9.80
2023-05-14T07:22:52.802Z,10.00
2023-05-14T07:25:26.807Z,9.20
2023-05-14T07:28:01.794Z,10.30
2023-05-14T07:30:36.350Z,9.50
2023-05-14T07:33:09.868Z,9.30
2023-05-14T07:35:43.590Z,9.40
2023-05-14T07:38:19.796Z,8.90
2023-05-14T07:40:53.088Z,9.90
2023-05-14T07:43:28.166Z,9.50
2023-05-14T07:46:02.844Z,9.30
2023-05-14T07:48:37.565Z,9.50
2023-05-14T07:51:12.437Z,8.70
2023-05-14T07:53:50.871Z,9.40
2023-05-14T07:56:27.093Z,9.20
2023-05-14T07:59:09.270Z,8.80
2023-05-14T08:01:45.747Z,8.90
2023-05-14T08:04:23.439Z,9.10
2023-05-14T08:06:59.452Z,8.40
2023-05-14T08:09:34.289Z,9.00
2023-05-14T08:12:09.784Z,8.90
2023-05-14T08:14:43.915Z,9.00
2023-05-14T08:17:18.839Z,8.30
2023-05-14T08:19:54.176Z,8.30
2023-05-14T08:22:29.013Z,7.40
2023-05-14T08:25:06.057Z,7.90
2023-05-14T08:27:40.940Z,8.10
2023-05-14T08:30:16.573Z,7.60
2023-05-14T08:32:51.721Z,7.70
2023-05-14T08:35:29.211Z,9.20
2023-05-14T08:38:03.015Z,7.60
2023-05-14T08:40:39.225Z,7.60
2023-05-14T08:43:17.127Z,7.40
2023-05-14T08:45:59.391Z,7.60
2023-05-14T08:48:35.142Z,7.90
2023-05-14T08:51:11.389Z,7.50
2023-05-14T08:53:44.893Z,7.30
2023-05-14T08:56:21.956Z,8.00
2023-05-14T08:58:55.275Z,7.40
2023-05-14T09:01:31.522Z,7.10
2023-05-14T09:04:08.609Z,7.40
2023-05-14T09:06:45.645Z,7.30
2023-05-14T09:09:22.479Z,6.90
2023-05-14T09:11:57.311Z,6.40
2023-05-14T09:14:33.955Z,6.80
2023-05-14T09:17:07.820Z,7.30
2023-05-14T09:19:43.834Z,7.00
2023-05-14T09:22:19.038Z,7.30
2023-05-14T09:25:08.007Z,7.40
2023-05-14T09:27:41.452Z,7.80
2023-05-14T09:30:17.145Z,6.90
2023-05-14T09:32:50.737Z,6.80
2023-05-14T09:35:27.686Z,6.90
2023-05-14T09:38:03.314Z,6.50
2023-05-14T09:40:37.007Z,6.20
2023-05-14T09:43:14.130Z,6.80
2023-05-14T09:45:48.677Z,6.80
2023-05-14T09:48:24.578Z,6.10
2023-05-14T09:51:02.261Z,6.20
2023-05-14T09:53:39.629Z,6.20
2023-05-14T09:56:16.749Z,6.40
2023-05-14T09:58:51.592Z,6.90
2023-05-14T10:01:27.523Z,6.40
2023-05-14T10:04:02.143Z,6.50
2023-05-14T10:06:42.524Z,6.20
2023-05-14T10:09:19.712Z,5.60
2023-05-14T10:11:57.793Z,6.40
2023-05-14T10:14:42.178Z,5.70
2023-05-14T10:17:19.955Z,5.30
2023-05-14T10:19:56.067Z,6.10
2023-05-14T10:22:35.122Z,6.00
2023-05-14T10:25:10.799Z,5.50
2023-05-14T10:27:45.554Z,5.30
2023-05-14T10:30:19.571Z,5.50
2023-05-14T10:33:08.805Z,5.90
2023-05-14T10:36:07.240Z,5.90
2023-05-14T10:38:41.849Z,4.90
2023-05-14T10:41:19.161Z,5.80
2023-05-14T10:43:52.679Z,5.40
2023-05-14T10:46:29.780Z,5.70
2023-05-14T10:49:06.288Z,6.40
2023-05-14T10:51:42.211Z,5.70
2023-05-14T10:54:18.111Z,5.30
2023-05-14T10:56:55.221Z,5.30
2023-05-14T10:59:31.367Z,5.60
2023-05-14T11:02:08.048Z,5.70
2023-05-14T11:04:43.974Z,4.70
2023-05-14T11:07:17.649Z,4.90
2023-05-14T11:09:53.218Z,5.70
2023-05-14T11:12:27.397Z,5.50
2023-05-14T11:15:04.034Z,5.80
2023-05-14T11:17:43.556Z,6.10
2023-05-14T11:20:19.953Z,6.60
2023-05-14T11:22:53.476Z,5.30
2023-05-14T11:25:26.792Z,5.10
2023-05-14T11:28:02.505Z,5.70
2023-05-14T11:30:35.821Z,5.40
2023-05-14T11:33:09.270Z,6.10
2023-05-14T11:35:45.746Z,5.90
2023-05-14T11:38:21.235Z,5.90
2023-05-14T11:40:58.902Z,5.00
2023-05-14T11:43:32.476Z,5.00
2023-05-14T11:46:05.807Z,5.30
2023-05-14T11:48:39.131Z,5.10
2023-05-14T11:51:12.839Z,5.10
2023-05-14T11:53:48.241Z,5.20
2023-05-14T11:56:22.641Z,5.30
2023-05-14T11:59:01.000Z,5.00
2023-05-14T12:01:40.142Z,4.50
2023-05-14T12:04:13.734Z,5.40
2023-05-14T12:06:49.145Z,4.90
2023-05-14T12:09:23.551Z,4.60
2023-05-14T12:11:58.589Z,4.40
2023-05-14T12:14:32.016Z,4.80
2023-05-14T12:17:06.471Z,4.40
2023-05-14T12:19:44.746Z,4.40
2023-05-14T12:22:21.133Z,5.50
2023-05-14T12:25:00.145Z,5.40
2023-05-14T12:27:34.012Z,4.80
2023-05-14T12:32:46.298Z,5.10
2023-05-14T12:35:23.233Z,4.90
2023-05-14T12:37:56.988Z,5.20
2023-05-14T12:40:30.399Z,4.60
2023-05-14T12:43:04.198Z,4.90
2023-05-14T12:45:37.490Z,4.60
2023-05-14T12:48:11.352Z,4.40
2023-05-14T12:50:45.310Z,5.00
2023-05-14T12:53:18.584Z,4.70
2023-05-14T12:55:53.275Z,4.70
2023-05-14T12:58:30.508Z,5.50
2023-05-14T13:01:03.840Z,5.60
2023-05-14T13:03:37.410Z,4.80
2023-05-14T13:06:11.766Z,5.30
2023-05-14T13:08:45.321Z,5.20
2023-05-14T13:11:18.667Z,5.30
2023-05-14T13:13:51.995Z,5.40
2023-05-14T13:16:25.731Z,5.50
2023-05-14T13:19:01.360Z,5.20
2023-05-14T13:21:35.961Z,5.70
2023-05-14T13:24:10.592Z,5.70
2023-05-14T13:26:44.701Z,4.40
2023-05-14T13:29:18.671Z,4.40
2023-05-14T13:31:53.024Z,5.20
2023-05-14T13:34:26.212Z,5.20
2023-05-14T13:37:00.215Z,5.80
2023-05-14T13:39:33.469Z,4.70
2023-05-14T13:42:07.944Z,4.60
2023-05-14T13:44:41.162Z,5.00
2023-05-14T13:47:14.454Z,4.60
2023-05-14T13:49:48.141Z,5.40
2023-05-14T13:52:21.613Z,4.70
2023-05-14T13:54:55.045Z,5.20
2023-05-14T13:57:28.392Z,4.40
2023-05-14T14:00:01.669Z,4.70
2023-05-14T14:02:34.951Z,4.30
2023-05-14T14:05:11.523Z,4.70
2023-05-14T14:07:44.683Z,4.80
2023-05-14T14:10:18.336Z,4.70
2023-05-14T14:12:51.752Z,5.40
2023-05-14T14:15:25.370Z,4.40
2023-05-14T14:17:59.618Z,5.30
2023-05-14T14:20:33.078Z,4.00
2023-05-14T14:23:06.191Z,5.00
2023-05-14T14:25:39.515Z,4.20
2023-05-14T14:28:12.956Z,4.70
2023-05-14T14:30:46.442Z,4.90
2023-05-14T14:33:19.783Z,4.30
2023-05-14T14:35:53.165Z,4.30
2023-05-14T14:38:27.199Z,6.40
2023-05-14T14:41:03.022Z,4.90
2023-05-14T14:43:36.416Z,5.80
2023-05-14T14:46:09.829Z,4.70
2023-05-14T14:48:44.016Z,4.40
2023-05-14T14:51:17.159Z,4.60
2023-05-14T14:53:51.370Z,4.20
2023-05-14T14:56:24.740Z,4.80
2023-05-14T14:59:02.579Z,4.80
2023-05-14T15:01:38.477Z,4.70
2023-05-14T15:04:13.713Z,4.10
2023-05-14T15:06:48.469Z,4.00
2023-05-14T15:09:27.915Z,4.00
2023-05-14T15:12:04.099Z,4.60
2023-05-14T15:14:37.757Z,4.40
2023-05-14T15:17:13.065Z,4.40
2023-05-14T15:19:55.405Z,5.10
2023-05-14T15:22:31.117Z,4.90
2023-05-14T15:25:07.129Z,5.00
2023-05-14T15:27:46.398Z,4.20
2023-05-14T15:30:21.097Z,4.50
2023-05-14T15:32:56.177Z,4.60
2023-05-14T15:35:31.864Z,5.30
2023-05-14T15:38:08.295Z,5.70
2023-05-14T15:40:43.528Z,4.90
2023-05-14T15:43:18.248Z,4.80
2023-05-14T15:45:52.259Z,5.30
2023-05-14T15:48:28.270Z,4.80
2023-05-14T15:51:04.185Z,5.60
2023-05-14T15:53:38.036Z,4.90
2023-05-14T15:56:19.102Z,4.70
2023-05-14T15:58:54.333Z,5.20
2023-05-14T16:01:32.468Z,5.30
2023-05-14T16:04:08.240Z,4.40
2023-05-14T16:06:45.347Z,5.60
2023-05-14T16:09:20.071Z,4.70
2023-05-14T16:11:54.850Z,4.50
2023-05-14T16:14:29.909Z,5.60
2023-05-14T16:17:05.878Z,5.10
2023-05-14T16:19:41.343Z,4.80
2023-05-14T16:22:20.006Z,4.30
2023-05-14T16:24:55.815Z,4.10
2023-05-14T16:27:30.184Z,4.80
2023-05-14T16:30:06.242Z,4.80
2023-05-14T16:32:42.804Z,5.10
2023-05-14T16:35:18.408Z,4.50
2023-05-14T16:37:53.094Z,4.70
2023-05-14T16:40:29.251Z,4.40
2023-05-14T16:43:06.773Z,4.90
2023-05-14T16:45:42.835Z,4.50
2023-05-14T16:48:21.740Z,4.90
2023-05-14T16:50:59.778Z,4.20
2023-05-14T16:53:35.423Z,4.50
2023-05-14T16:56:10.052Z,4.40
2023-05-14T16:58:45.920Z,4.60
2023-05-14T17:01:22.637Z,4.30
2023-05-14T17:03:59.399Z,4.40
2023-05-14T17:06:36.596Z,4.60
2023-05-14T17:09:15.112Z,5.60
2023-05-14T17:11:55.102Z,4.20
2023-05-14T17:14:30.411Z,4.80
2023-05-14T17:17:05.635Z,4.40
2023-05-14T17:19:39.775Z,4.80
2023-05-14T17:22:14.424Z,4.50
2023-05-14T17:24:50.755Z,4.10
2023-05-14T17:27:26.241Z,4.20
2023-05-14T17:30:04.411Z,4.80
2023-05-14T17:32:38.181Z,4.10
2023-05-14T17:35:13.904Z,4.20
2023-05-14T17:37:48.784Z,4.30
2023-05-14T17:40:24.609Z,4.50
2023-05-14T17:43:00.343Z,5.00
2023-05-14T17:45:46.412Z,4.10
2023-05-14T17:48:30.303Z,4.50
2023-05-14T17:51:05.743Z,4.60
2023-05-14T17:53:46.537Z,4.80
2023-05-14T17:56:20.472Z,5.40
2023-05-14T17:58:54.068Z,4.90
2023-05-14T18:01:27.902Z,4.90
2023-05-14T18:04:02.193Z,3.80
2023-05-14T18:06:38.223Z,4.60
2023-05-14T18:09:15.319Z,4.50
2023-05-14T18:11:49.323Z,4.00
2023-05-14T18:14:25.409Z,5.00
2023-05-14T18:16:59.224Z,4.20
2023-05-14T18:19:34.562Z,4.50
2023-05-14T18:22:09.437Z,4.50
2023-05-14T18:24:44.786Z,4.60
2023-05-14T18:27:20.899Z,4.50
2023-05-14T18:29:58.240Z,4.20
2023-05-14T18:32:34.585Z,4.60
2023-05-14T18:35:09.990Z,4.70
2023-05-14T18:37:44.979Z,4.20
2023-05-14T18:40:20.720Z,4.40
2023-05-14T18:42:56.744Z,4.50
2023-05-14T18:45:32.437Z,4.30
2023-05-14T18:48:07.506Z,4.50
2023-05-14T18:50:40.989Z,4.20
2023-05-14T18:53:19.187Z,4.00
2023-05-14T18:55:53.409Z,4.20
2023-05-14T18:58:27.158Z,4.90
2023-05-14T19:01:01.994Z,4.90
2023-05-14T19:03:36.152Z,4.30
2023-05-14T19:06:11.177Z,5.00
2023-05-14T19:08:44.743Z,4.80
2023-05-14T19:11:19.265Z,4.70
2023-05-14T19:13:55.790Z,4.50
2023-05-14T19:16:33.199Z,4.90
2023-05-14T19:19:07.505Z,5.10
2023-05-14T19:21:46.737Z,4.30
2023-05-14T19:24:23.455Z,4.80
2023-05-14T19:26:58.452Z,4.60
2023-05-14T19:29:34.219Z,4.60
2023-05-14T19:32:11.938Z,4.70
2023-05-14T19:34:51.624Z,4.60
2023-05-14T19:37:26.566Z,5.00
2023-05-14T19:40:02.328Z,4.40
2023-05-14T19:42:38.025Z,4.50
2023-05-14T19:45:14.482Z,4.60
2023-05-14T19:47:49.457Z,4.60
2023-05-14T19:50:24.094Z,4.80
2023-05-14T19:52:58.159Z,5.40
2023-05-14T19:55:35.549Z,5.00
2023-05-14T19:58:10.378Z,4.60
2023-05-14T20:00:51.094Z,5.00
2023-05-14T20:03:27.332Z,4.60
2023-05-14T20:06:03.781Z,5.10
2023-05-14T20:08:40.634Z,4.40
2023-05-14T20:11:18.018Z,5.00
2023-05-14T20:13:52.722Z,5.00
2023-05-14T20:16:30.710Z,5.20
2023-05-14T20:19:09.942Z,5.10
2023-05-14T20:21:47.146Z,5.20
2023-05-14T20:24:22.334Z,5.60
2023-05-14T20:27:00.650Z,4.30
2023-05-14T20:29:35.508Z,5.10
2023-05-14T20:32:15.114Z,4.30
2023-05-14T20:34:51.080Z,5.40
2023-05-14T20:37:25.493Z,4.90
2023-05-14T20:40:06.344Z,5.00
2023-05-14T20:42:41.144Z,5.00
2023-05-14T20:45:16.291Z,5.00
2023-05-14T20:47:53.273Z,4.90
2023-05-14T20:50:28.846Z,4.60
2023-05-14T20:53:03.486Z,4.80
2023-05-14T20:55:39.522Z,4.80
2023-05-14T20:58:16.225Z,5.50
2023-05-14T21:00:51.262Z,5.00
2023-05-14T21:03:25.305Z,4.80
2023-05-14T21:06:00.726Z,5.60
2023-05-14T21:08:37.701Z,4.90
2023-05-14T21:11:11.631Z,4.60
2023-05-14T21:13:45.671Z,4.50
2023-05-14T21:16:20.791Z,4.80
2023-05-14T21:18:57.354Z,5.20
2023-05-14T21:21:32.574Z,4.80
2023-05-14T21:24:07.568Z,4.90
2023-05-14T21:26:43.638Z,5.20
2023-05-14T21:29:17.641Z,4.90
2023-05-14T21:31:52.924Z,4.80
2023-05-14T21:34:32.660Z,4.70
2023-05-14T21:37:07.960Z,5.50
2023-05-14T21:39:45.300Z,5.00
2023-05-14T21:42:24.420Z,4.70
2023-05-14T21:44:58.137Z,4.60
2023-05-14T21:47:32.487Z,4.80
2023-05-14T21:50:09.430Z,5.00
2023-05-14T21:52:44.666Z,4.60
2023-05-14T21:55:20.066Z,4.60
2023-05-14T21:57:58.713Z,5.20
2023-05-14T22:00:34.224Z,5.10
2023-05-14T22:03:13.263Z,5.20
2023-05-14T22:05:50.230Z,4.40
2023-05-14T22:08:27.261Z,5.00
2023-05-14T22:11:00.919Z,5.70
2023-05-14T22:13:40.834Z,5.70
2023-05-14T22:16:16.561Z,5.20
2023-05-14T22:18:53.353Z,5.70
2023-05-14T22:21:29.572Z,4.90
2023-05-14T22:24:03.308Z,5.20
2023-05-14T22:26:41.537Z,4.70
2023-05-14T22:29:17.125Z,4.80
2023-05-14T22:31:53.399Z,5.20
2023-05-14T22:34:29.853Z,5.00
2023-05-14T22:37:03.915Z,5.30
2023-05-14T22:39:39.317Z,5.60
2023-05-14T22:42:14.704Z,5.20
2023-05-14T22:44:48.613Z,6.70
2023-05-14T22:47:25.309Z,5.80
2023-05-14T22:50:00.786Z,5.90
2023-05-14T22:52:39.202Z,5.80
2023-05-14T22:55:14.274Z,6.00
2023-05-14T22:57:50.237Z,6.30
2023-05-14T23:00:29.764Z,5.50
2023-05-14T23:03:03.668Z,5.20
2023-05-14T23:05:39.036Z,5.90
2023-05-14T23:08:16.427Z,5.70
2023-05-14T23:10:54.177Z,5.60
2023-05-14T23:13:29.470Z,5.20
2023-05-14T23:16:05.365Z,5.50
2023-05-14T23:18:40.743Z,5.60
2023-05-14T23:21:15.696Z,5.30
2023-05-14T23:23:55.899Z,5.70
2023-05-14T23:26:33.963Z,6.00
2023-05-14T23:29:10.096Z,5.60
2023-05-14T23:31:44.950Z,6.00
2023-05-14T23:34:22.420Z,6.20
2023-05-14T23:36:58.716Z,5.40
2023-05-14T23:39:33.927Z,5.60
2023-05-14T23:42:09.048Z,5.50
2023-05-14T23:44:43.659Z,5.60
2023-05-14T23:47:18.547Z,5.60
2023-05-14T23:49:54.397Z,5.70
2023-05-14T23:52:31.098Z,6.00
2023-05-14T23:55:07.953Z,5.90
2023-05-14T23:57:42.828Z,5.80
